sensor_id;sensor_type;location;lat;lon;timestamp;temperature;humidity
17495;DHT22;8864;51.970;4.614;2023-11-19T00:00:48;16.50;81.40
17495;DHT22;8864;51.970;4.614;2023-11-19T00:03:16;16.60;81.40
17495;DHT22;8864;51.970;4.614;2023-11-19T00:05:43;16.60;81.40
17495;DHT22;8864;51.970;4.614;2023-11-19T00:08:10;16.50;81.30
17495;DHT22;8864;51.970;4.614;2023-11-19T00:10:37;16.60;81.40
17495;DHT22;8864;51.970;4.614;2023-11-19T00:13:04;16.60;81.40
17495;DHT22;8864;51.970;4.614;2023-11-19T00:15:32;16.60;81.40
17495;DHT22;8864;51.970;4.614;2023-11-19T00:17:59;16.50;81.40
17495;DHT22;8864;51.970;4.614;2023-11-19T00:20:31;16.50;81.40
17495;DHT22;8864;51.970;4.614;2023-11-19T00:22:58;16.60;81.50
17495;DHT22;8864;51.970;4.614;2023-11-19T00:25:26;16.60;81.40
17495;DHT22;8864;51.970;4.614;2023-11-19T00:27:53;16.50;81.40
17495;DHT22;8864;51.970;4.614;2023-11-19T00:30:21;16.50;81.40
17495;DHT22;8864;51.970;4.614;2023-11-19T00:32:48;16.60;81.40
17495;DHT22;8864;51.970;4.614;2023-11-19T00:35:15;16.60;81.50
17495;DHT22;8864;51.970;4.614;2023-11-19T00:37:43;16.50;81.40
17495;DHT22;8864;51.970;4.614;2023-11-19T00:40:11;16.60;81.60
17495;DHT22;8864;51.970;4.614;2023-11-19T00:42:38;16.60;81.60
17495;DHT22;8864;51.970;4.614;2023-11-19T00:45:05;16.60;81.50
17495;DHT22;8864;51.970;4.614;2023-11-19T00:47:35;16.60;81.50
17495;DHT22;8864;51.970;4.614;2023-11-19T00:50:02;16.60;81.60
17495;DHT22;8864;51.970;4.614;2023-11-19T00:52:29;16.60;81.60
17495;DHT22;8864;51.970;4.614;2023-11-19T00:54:57;16.50;81.50
17495;DHT22;8864;51.970;4.614;2023-11-19T00:57:24;16.60;81.60
17495;DHT22;8864;51.970;4.614;2023-11-19T00:59:52;16.50;81.50
17495;DHT22;8864;51.970;4.614;2023-11-19T01:02:19;16.60;81.60
17495;DHT22;8864;51.970;4.614;2023-11-19T01:04:46;16.60;81.70
17495;DHT22;8864;51.970;4.614;2023-11-19T01:07:13;16.50;81.70
17495;DHT22;8864;51.970;4.614;2023-11-19T01:09:41;16.60;81.90
17495;DHT22;8864;51.970;4.614;2023-11-19T01:12:10;16.50;81.90
17495;DHT22;8864;51.970;4.614;2023-11-19T01:14:37;16.60;82.00
17495;DHT22;8864;51.970;4.614;2023-11-19T01:17:04;16.60;82.00
17495;DHT22;8864;51.970;4.614;2023-11-19T01:19:31;16.50;82.00
17495;DHT22;8864;51.970;4.614;2023-11-19T01:21:58;16.60;82.00
17495;DHT22;8864;51.970;4.614;2023-11-19T01:24:25;16.60;82.10
17495;DHT22;8864;51.970;4.614;2023-11-19T01:26:54;16.60;82.00
17495;DHT22;8864;51.970;4.614;2023-11-19T01:29:22;16.60;82.10
17495;DHT22;8864;51.970;4.614;2023-11-19T01:31:49;16.60;82.00
17495;DHT22;8864;51.970;4.614;2023-11-19T01:34:16;16.60;82.00
17495;DHT22;8864;51.970;4.614;2023-11-19T01:36:43;16.60;82.00
17495;DHT22;8864;51.970;4.614;2023-11-19T01:39:12;16.50;82.10
17495;DHT22;8864;51.970;4.614;2023-11-19T01:41:41;16.50;82.00
17495;DHT22;8864;51.970;4.614;2023-11-19T01:44:08;16.60;82.10
17495;DHT22;8864;51.970;4.614;2023-11-19T01:46:40;16.60;82.10
17495;DHT22;8864;51.970;4.614;2023-11-19T01:49:07;16.50;82.00
17495;DHT22;8864;51.970;4.614;2023-11-19T01:51:35;16.60;82.20
17495;DHT22;8864;51.970;4.614;2023-11-19T01:54:03;16.50;82.10
17495;DHT22;8864;51.970;4.614;2023-11-19T01:56:30;16.50;82.10
17495;DHT22;8864;51.970;4.614;2023-11-19T01:58:58;16.60;82.20
17495;DHT22;8864;51.970;4.614;2023-11-19T02:01:26;16.50;82.10
17495;DHT22;8864;51.970;4.614;2023-11-19T02:03:59;16.60;82.20
17495;DHT22;8864;51.970;4.614;2023-11-19T02:06:28;16.60;82.20
17495;DHT22;8864;51.970;4.614;2023-11-19T02:08:55;16.50;82.20
17495;DHT22;8864;51.970;4.614;2023-11-19T02:11:22;16.60;82.20
17495;DHT22;8864;51.970;4.614;2023-11-19T02:13:49;16.50;82.20
17495;DHT22;8864;51.970;4.614;2023-11-19T02:16:16;16.60;82.30
17495;DHT22;8864;51.970;4.614;2023-11-19T02:18:43;16.50;82.30
17495;DHT22;8864;51.970;4.614;2023-11-19T02:21:11;16.50;82.30
17495;DHT22;8864;51.970;4.614;2023-11-19T02:23:40;16.60;82.30
17495;DHT22;8864;51.970;4.614;2023-11-19T02:26:13;16.60;82.40
17495;DHT22;8864;51.970;4.614;2023-11-19T02:28:43;16.50;82.30
17495;DHT22;8864;51.970;4.614;2023-11-19T02:31:10;16.50;82.30
17495;DHT22;8864;51.970;4.614;2023-11-19T02:33:37;16.60;82.30
17495;DHT22;8864;51.970;4.614;2023-11-19T02:36:05;16.50;82.30
17495;DHT22;8864;51.970;4.614;2023-11-19T02:38:33;16.50;82.30
17495;DHT22;8864;51.970;4.614;2023-11-19T02:41:01;16.50;82.30
17495;DHT22;8864;51.970;4.614;2023-11-19T02:43:30;16.50;82.40
17495;DHT22;8864;51.970;4.614;2023-11-19T02:46:00;16.50;83.10
17495;DHT22;8864;51.970;4.614;2023-11-19T02:48:27;16.50;82.40
17495;DHT22;8864;51.970;4.614;2023-11-19T02:50:56;16.50;82.40
17495;DHT22;8864;51.970;4.614;2023-11-19T02:53:25;16.60;82.50
17495;DHT22;8864;51.970;4.614;2023-11-19T02:55:54;16.50;82.50
17495;DHT22;8864;51.970;4.614;2023-11-19T02:58:26;16.50;82.50
17495;DHT22;8864;51.970;4.614;2023-11-19T03:00:54;16.50;82.50
17495;DHT22;8864;51.970;4.614;2023-11-19T03:03:26;16.50;82.50
17495;DHT22;8864;51.970;4.614;2023-11-19T03:06:04;16.50;82.50
17495;DHT22;8864;51.970;4.614;2023-11-19T03:08:31;16.50;82.50
17495;DHT22;8864;51.970;4.614;2023-11-19T03:10:58;16.50;82.50
17495;DHT22;8864;51.970;4.614;2023-11-19T03:13:25;16.50;82.50
17495;DHT22;8864;51.970;4.614;2023-11-19T03:15:52;16.50;82.60
17495;DHT22;8864;51.970;4.614;2023-11-19T03:18:19;16.50;82.60
17495;DHT22;8864;51.970;4.614;2023-11-19T03:20:47;16.50;82.60
17495;DHT22;8864;51.970;4.614;2023-11-19T03:23:15;16.50;82.60
17495;DHT22;8864;51.970;4.614;2023-11-19T03:25:42;16.50;82.50
17495;DHT22;8864;51.970;4.614;2023-11-19T03:28:09;16.50;82.60
17495;DHT22;8864;51.970;4.614;2023-11-19T03:30:36;16.50;82.60
17495;DHT22;8864;51.970;4.614;2023-11-19T03:33:03;16.50;82.60
17495;DHT22;8864;51.970;4.614;2023-11-19T03:35:30;16.50;82.70
17495;DHT22;8864;51.970;4.614;2023-11-19T03:38:00;16.50;82.60
17495;DHT22;8864;51.970;4.614;2023-11-19T03:40:28;16.50;82.60
17495;DHT22;8864;51.970;4.614;2023-11-19T03:42:56;16.50;82.70
17495;DHT22;8864;51.970;4.614;2023-11-19T03:45:23;16.50;82.60
17495;DHT22;8864;51.970;4.614;2023-11-19T03:47:50;16.50;82.70
17495;DHT22;8864;51.970;4.614;2023-11-19T03:50:17;16.50;82.70
17495;DHT22;8864;51.970;4.614;2023-11-19T03:52:45;16.50;82.80
17495;DHT22;8864;51.970;4.614;2023-11-19T03:55:13;16.50;82.80
17495;DHT22;8864;51.970;4.614;2023-11-19T03:57:41;16.50;82.80
17495;DHT22;8864;51.970;4.614;2023-11-19T04:00:08;16.50;82.80
17495;DHT22;8864;51.970;4.614;2023-11-19T04:02:35;16.50;82.80
17495;DHT22;8864;51.970;4.614;2023-11-19T04:05:03;16.50;82.90
17495;DHT22;8864;51.970;4.614;2023-11-19T04:07:30;16.50;82.80
17495;DHT22;8864;51.970;4.614;2023-11-19T04:09:57;16.40;82.80
17495;DHT22;8864;51.970;4.614;2023-11-19T04:12:25;16.40;82.80
17495;DHT22;8864;51.970;4.614;2023-11-19T04:14:52;16.50;82.90
17495;DHT22;8864;51.970;4.614;2023-11-19T04:17:19;16.50;83.00
17495;DHT22;8864;51.970;4.614;2023-11-19T04:19:46;16.50;83.00
17495;DHT22;8864;51.970;4.614;2023-11-19T04:22:13;16.50;83.00
17495;DHT22;8864;51.970;4.614;2023-11-19T04:24:40;16.50;83.00
17495;DHT22;8864;51.970;4.614;2023-11-19T04:27:09;16.50;83.00
17495;DHT22;8864;51.970;4.614;2023-11-19T04:29:37;16.40;83.00
17495;DHT22;8864;51.970;4.614;2023-11-19T04:32:05;16.50;83.10
17495;DHT22;8864;51.970;4.614;2023-11-19T04:34:32;16.40;83.00
17495;DHT22;8864;51.970;4.614;2023-11-19T04:36:59;16.50;83.10
17495;DHT22;8864;51.970;4.614;2023-11-19T04:39:29;16.50;83.10
17495;DHT22;8864;51.970;4.614;2023-11-19T04:41:56;16.50;83.10
17495;DHT22;8864;51.970;4.614;2023-11-19T04:44:23;16.50;83.10
17495;DHT22;8864;51.970;4.614;2023-11-19T04:46:51;16.40;83.10
17495;DHT22;8864;51.970;4.614;2023-11-19T04:49:18;16.50;83.10
17495;DHT22;8864;51.970;4.614;2023-11-19T04:51:45;16.50;83.10
17495;DHT22;8864;51.970;4.614;2023-11-19T04:54:13;16.40;83.20
17495;DHT22;8864;51.970;4.614;2023-11-19T04:56:40;16.50;83.20
17495;DHT22;8864;51.970;4.614;2023-11-19T04:59:11;16.40;83.10
17495;DHT22;8864;51.970;4.614;2023-11-19T05:01:38;16.40;83.30
17495;DHT22;8864;51.970;4.614;2023-11-19T05:04:07;16.40;83.30
17495;DHT22;8864;51.970;4.614;2023-11-19T05:06:34;16.40;83.20
17495;DHT22;8864;51.970;4.614;2023-11-19T05:09:01;16.40;83.30
17495;DHT22;8864;51.970;4.614;2023-11-19T05:11:30;16.40;83.30
17495;DHT22;8864;51.970;4.614;2023-11-19T05:13:57;16.40;83.30
17495;DHT22;8864;51.970;4.614;2023-11-19T05:16:24;16.40;83.30
17495;DHT22;8864;51.970;4.614;2023-11-19T05:18:51;16.40;83.30
17495;DHT22;8864;51.970;4.614;2023-11-19T05:21:20;16.40;83.40
17495;DHT22;8864;51.970;4.614;2023-11-19T05:23:47;16.40;83.40
17495;DHT22;8864;51.970;4.614;2023-11-19T05:26:18;16.40;83.40
17495;DHT22;8864;51.970;4.614;2023-11-19T05:28:45;16.40;83.40
17495;DHT22;8864;51.970;4.614;2023-11-19T05:31:12;16.40;83.40
17495;DHT22;8864;51.970;4.614;2023-11-19T05:33:39;16.40;83.40
17495;DHT22;8864;51.970;4.614;2023-11-19T05:36:06;16.40;83.40
17495;DHT22;8864;51.970;4.614;2023-11-19T05:38:36;16.40;83.40
17495;DHT22;8864;51.970;4.614;2023-11-19T05:41:03;16.40;83.50
17495;DHT22;8864;51.970;4.614;2023-11-19T05:43:30;16.40;83.70
17495;DHT22;8864;51.970;4.614;2023-11-19T05:45:57;16.40;83.70
17495;DHT22;8864;51.970;4.614;2023-11-19T05:48:26;16.40;83.70
17495;DHT22;8864;51.970;4.614;2023-11-19T05:50:53;16.40;83.70
17495;DHT22;8864;51.970;4.614;2023-11-19T05:53:20;16.40;83.70
17495;DHT22;8864;51.970;4.614;2023-11-19T05:55:49;16.40;83.80
17495;DHT22;8864;51.970;4.614;2023-11-19T05:58:23;16.40;83.80
17495;DHT22;8864;51.970;4.614;2023-11-19T06:00:51;16.40;83.80
17495;DHT22;8864;51.970;4.614;2023-11-19T06:03:18;16.30;83.80
17495;DHT22;8864;51.970;4.614;2023-11-19T06:05:47;16.30;84.00
17495;DHT22;8864;51.970;4.614;2023-11-19T06:08:16;16.40;84.30
17495;DHT22;8864;51.970;4.614;2023-11-19T06:10:43;16.40;84.20
17495;DHT22;8864;51.970;4.614;2023-11-19T06:13:13;16.40;84.30
17495;DHT22;8864;51.970;4.614;2023-11-19T06:15:41;16.40;84.30
17495;DHT22;8864;51.970;4.614;2023-11-19T06:18:08;16.40;84.30
17495;DHT22;8864;51.970;4.614;2023-11-19T06:20:35;16.40;84.30
17495;DHT22;8864;51.970;4.614;2023-11-19T06:23:02;16.40;84.30
17495;DHT22;8864;51.970;4.614;2023-11-19T06:25:29;16.30;84.40
17495;DHT22;8864;51.970;4.614;2023-11-19T06:27:56;16.40;84.40
17495;DHT22;8864;51.970;4.614;2023-11-19T06:30:24;16.40;84.40
17495;DHT22;8864;51.970;4.614;2023-11-19T06:32:53;16.30;84.50
17495;DHT22;8864;51.970;4.614;2023-11-19T06:35:20;16.30;84.50
17495;DHT22;8864;51.970;4.614;2023-11-19T06:37:47;16.40;84.50
17495;DHT22;8864;51.970;4.614;2023-11-19T06:40:14;16.40;84.50
17495;DHT22;8864;51.970;4.614;2023-11-19T06:42:42;16.40;84.60
17495;DHT22;8864;51.970;4.614;2023-11-19T06:45:09;16.40;85.20
17495;DHT22;8864;51.970;4.614;2023-11-19T06:47:37;16.40;84.50
17495;DHT22;8864;51.970;4.614;2023-11-19T06:50:05;16.40;84.40
17495;DHT22;8864;51.970;4.614;2023-11-19T06:52:32;16.40;84.40
17495;DHT22;8864;51.970;4.614;2023-11-19T06:54:59;16.40;84.30
17495;DHT22;8864;51.970;4.614;2023-11-19T06:57:26;16.40;84.30
17495;DHT22;8864;51.970;4.614;2023-11-19T06:59:55;16.40;84.30
17495;DHT22;8864;51.970;4.614;2023-11-19T07:02:21;16.40;84.50
17495;DHT22;8864;51.970;4.614;2023-11-19T07:04:50;16.30;84.30
17495;DHT22;8864;51.970;4.614;2023-11-19T07:07:17;16.40;84.30
17495;DHT22;8864;51.970;4.614;2023-11-19T07:09:44;16.40;84.30
17495;DHT22;8864;51.970;4.614;2023-11-19T07:12:11;16.40;84.40
17495;DHT22;8864;51.970;4.614;2023-11-19T07:14:40;16.30;84.30
17495;DHT22;8864;51.970;4.614;2023-11-19T07:17:07;16.30;84.30
17495;DHT22;8864;51.970;4.614;2023-11-19T07:19:34;16.30;84.30
17495;DHT22;8864;51.970;4.614;2023-11-19T07:22:05;16.30;84.30
17495;DHT22;8864;51.970;4.614;2023-11-19T07:24:32;16.30;84.20
17495;DHT22;8864;51.970;4.614;2023-11-19T07:26:59;16.40;84.30
17495;DHT22;8864;51.970;4.614;2023-11-19T07:29:26;16.30;84.20
17495;DHT22;8864;51.970;4.614;2023-11-19T07:31:53;16.30;84.20
17495;DHT22;8864;51.970;4.614;2023-11-19T07:34:20;16.30;84.20
17495;DHT22;8864;51.970;4.614;2023-11-19T07:36:46;16.30;84.20
17495;DHT22;8864;51.970;4.614;2023-11-19T07:39:15;16.30;84.20
17495;DHT22;8864;51.970;4.614;2023-11-19T07:41:42;16.30;84.20
17495;DHT22;8864;51.970;4.614;2023-11-19T07:44:08;16.30;85.00
17495;DHT22;8864;51.970;4.614;2023-11-19T07:46:36;16.30;84.30
17495;DHT22;8864;51.970;4.614;2023-11-19T07:49:03;16.30;84.20
17495;DHT22;8864;51.970;4.614;2023-11-19T07:51:30;16.30;84.30
17495;DHT22;8864;51.970;4.614;2023-11-19T07:53:57;16.30;84.20
17495;DHT22;8864;51.970;4.614;2023-11-19T07:56:25;16.30;84.20
17495;DHT22;8864;51.970;4.614;2023-11-19T07:58:52;16.30;84.20
17495;DHT22;8864;51.970;4.614;2023-11-19T08:01:19;16.30;84.20
17495;DHT22;8864;51.970;4.614;2023-11-19T08:03:46;16.30;84.20
17495;DHT22;8864;51.970;4.614;2023-11-19T08:06:13;16.30;84.20
17495;DHT22;8864;51.970;4.614;2023-11-19T08:08:40;16.30;84.30
17495;DHT22;8864;51.970;4.614;2023-11-19T08:11:07;16.30;84.30
17495;DHT22;8864;51.970;4.614;2023-11-19T08:13:35;16.30;84.30
17495;DHT22;8864;51.970;4.614;2023-11-19T08:16:03;16.30;84.30
17495;DHT22;8864;51.970;4.614;2023-11-19T08:18:30;16.30;84.20
17495;DHT22;8864;51.970;4.614;2023-11-19T08:20:56;16.30;84.40
17495;DHT22;8864;51.970;4.614;2023-11-19T08:23:25;16.30;84.30
17495;DHT22;8864;51.970;4.614;2023-11-19T08:25:54;16.30;84.30
17495;DHT22;8864;51.970;4.614;2023-11-19T08:28:22;16.30;84.30
17495;DHT22;8864;51.970;4.614;2023-11-19T08:30:50;16.30;84.20
17495;DHT22;8864;51.970;4.614;2023-11-19T08:33:17;16.40;84.30
17495;DHT22;8864;51.970;4.614;2023-11-19T08:35:44;16.30;84.50
17495;DHT22;8864;51.970;4.614;2023-11-19T08:38:12;16.40;85.40
17495;DHT22;8864;51.970;4.614;2023-11-19T08:40:39;16.40;86.20
17495;DHT22;8864;51.970;4.614;2023-11-19T08:43:06;16.40;86.90
17495;DHT22;8864;51.970;4.614;2023-11-19T08:45:33;16.40;87.10
17495;DHT22;8864;51.970;4.614;2023-11-19T08:48:01;16.40;86.80
17495;DHT22;8864;51.970;4.614;2023-11-19T08:50:28;16.40;86.60
17495;DHT22;8864;51.970;4.614;2023-11-19T08:52:55;16.40;86.20
17495;DHT22;8864;51.970;4.614;2023-11-19T08:55:22;16.40;86.60
17495;DHT22;8864;51.970;4.614;2023-11-19T08:57:49;16.40;85.70
17495;DHT22;8864;51.970;4.614;2023-11-19T09:00:16;16.40;85.60
17495;DHT22;8864;51.970;4.614;2023-11-19T09:02:43;16.40;85.60
17495;DHT22;8864;51.970;4.614;2023-11-19T09:05:11;16.40;85.50
17495;DHT22;8864;51.970;4.614;2023-11-19T09:07:38;16.40;85.50
17495;DHT22;8864;51.970;4.614;2023-11-19T09:10:06;16.40;85.40
17495;DHT22;8864;51.970;4.614;2023-11-19T09:12:34;16.40;85.40
17495;DHT22;8864;51.970;4.614;2023-11-19T09:15:01;16.40;85.40
17495;DHT22;8864;51.970;4.614;2023-11-19T09:17:29;16.40;85.40
17495;DHT22;8864;51.970;4.614;2023-11-19T09:19:56;16.40;85.40
17495;DHT22;8864;51.970;4.614;2023-11-19T09:22:24;16.40;85.40
17495;DHT22;8864;51.970;4.614;2023-11-19T09:24:51;16.40;85.30
17495;DHT22;8864;51.970;4.614;2023-11-19T09:27:18;16.30;85.30
17495;DHT22;8864;51.970;4.614;2023-11-19T09:29:46;16.40;85.30
17495;DHT22;8864;51.970;4.614;2023-11-19T09:32:15;16.40;85.30
17495;DHT22;8864;51.970;4.614;2023-11-19T09:34:42;16.40;85.20
17495;DHT22;8864;51.970;4.614;2023-11-19T09:37:09;16.40;85.20
17495;DHT22;8864;51.970;4.614;2023-11-19T09:39:37;16.40;85.10
17495;DHT22;8864;51.970;4.614;2023-11-19T09:42:04;16.40;85.10
17495;DHT22;8864;51.970;4.614;2023-11-19T09:44:31;16.40;85.10
17495;DHT22;8864;51.970;4.614;2023-11-19T09:46:59;16.40;85.10
17495;DHT22;8864;51.970;4.614;2023-11-19T09:49:27;16.40;85.00
17495;DHT22;8864;51.970;4.614;2023-11-19T09:51:54;16.40;85.00
17495;DHT22;8864;51.970;4.614;2023-11-19T09:54:21;16.40;85.00
17495;DHT22;8864;51.970;4.614;2023-11-19T09:56:49;16.40;85.00
17495;DHT22;8864;51.970;4.614;2023-11-19T09:59:17;16.40;85.00
17495;DHT22;8864;51.970;4.614;2023-11-19T10:01:45;16.40;85.00
17495;DHT22;8864;51.970;4.614;2023-11-19T10:04:15;16.40;85.60
17495;DHT22;8864;51.970;4.614;2023-11-19T10:06:43;16.40;84.80
17495;DHT22;8864;51.970;4.614;2023-11-19T10:09:12;16.40;84.70
17495;DHT22;8864;51.970;4.614;2023-11-19T10:11:40;16.40;84.70
17495;DHT22;8864;51.970;4.614;2023-11-19T10:14:09;16.50;84.70
17495;DHT22;8864;51.970;4.614;2023-11-19T10:16:38;16.40;84.60
17495;DHT22;8864;51.970;4.614;2023-11-19T10:19:05;16.40;84.50
17495;DHT22;8864;51.970;4.614;2023-11-19T10:21:33;16.40;84.50
17495;DHT22;8864;51.970;4.614;2023-11-19T10:24:00;16.40;84.40
17495;DHT22;8864;51.970;4.614;2023-11-19T10:26:27;16.40;84.30
17495;DHT22;8864;51.970;4.614;2023-11-19T10:28:56;16.40;84.30
17495;DHT22;8864;51.970;4.614;2023-11-19T10:31:24;16.50;84.40
17495;DHT22;8864;51.970;4.614;2023-11-19T10:33:52;16.50;84.40
17495;DHT22;8864;51.970;4.614;2023-11-19T10:36:19;16.40;84.30
17495;DHT22;8864;51.970;4.614;2023-11-19T10:38:52;16.50;84.30
17495;DHT22;8864;51.970;4.614;2023-11-19T10:41:29;16.40;84.20
17495;DHT22;8864;51.970;4.614;2023-11-19T10:43:56;16.40;84.20
17495;DHT22;8864;51.970;4.614;2023-11-19T10:46:36;16.50;84.30
17495;DHT22;8864;51.970;4.614;2023-11-19T10:49:03;16.50;84.30
17495;DHT22;8864;51.970;4.614;2023-11-19T10:51:32;16.40;84.20
17495;DHT22;8864;51.970;4.614;2023-11-19T10:54:02;16.40;84.10
17495;DHT22;8864;51.970;4.614;2023-11-19T10:56:31;16.50;84.10
17495;DHT22;8864;51.970;4.614;2023-11-19T10:58:59;16.40;84.00
17495;DHT22;8864;51.970;4.614;2023-11-19T11:01:32;16.40;84.00
17495;DHT22;8864;51.970;4.614;2023-11-19T11:04:02;16.50;84.00
17495;DHT22;8864;51.970;4.614;2023-11-19T11:06:30;16.50;83.90
17495;DHT22;8864;51.970;4.614;2023-11-19T11:08:58;16.40;83.90
17495;DHT22;8864;51.970;4.614;2023-11-19T11:11:25;16.40;83.90
17495;DHT22;8864;51.970;4.614;2023-11-19T11:13:53;16.40;84.00
17495;DHT22;8864;51.970;4.614;2023-11-19T11:16:22;16.50;84.00
17495;DHT22;8864;51.970;4.614;2023-11-19T11:18:52;16.50;84.00
17495;DHT22;8864;51.970;4.614;2023-11-19T11:21:21;16.50;84.00
17495;DHT22;8864;51.970;4.614;2023-11-19T11:24:17;16.50;83.90
17495;DHT22;8864;51.970;4.614;2023-11-19T11:27:02;16.50;83.90
17495;DHT22;8864;51.970;4.614;2023-11-19T11:29:41;16.50;84.00
17495;DHT22;8864;51.970;4.614;2023-11-19T11:32:33;16.50;84.00
17495;DHT22;8864;51.970;4.614;2023-11-19T11:35:25;16.60;84.00
17495;DHT22;8864;51.970;4.614;2023-11-19T11:38:01;16.50;84.00
17495;DHT22;8864;51.970;4.614;2023-11-19T11:40:29;16.50;84.00
17495;DHT22;8864;51.970;4.614;2023-11-19T11:42:57;16.50;84.00
17495;DHT22;8864;51.970;4.614;2023-11-19T11:45:36;16.50;84.00
17495;DHT22;8864;51.970;4.614;2023-11-19T11:48:15;16.60;84.10
17495;DHT22;8864;51.970;4.614;2023-11-19T11:50:52;16.60;84.20
17495;DHT22;8864;51.970;4.614;2023-11-19T11:53:21;16.60;84.00
17495;DHT22;8864;51.970;4.614;2023-11-19T11:55:57;16.60;84.00
17495;DHT22;8864;51.970;4.614;2023-11-19T11:58:27;16.60;84.00
17495;DHT22;8864;51.970;4.614;2023-11-19T12:00:57;16.60;84.00
17495;DHT22;8864;51.970;4.614;2023-11-19T12:03:27;16.60;83.90
17495;DHT22;8864;51.970;4.614;2023-11-19T12:05:56;16.60;83.90
17495;DHT22;8864;51.970;4.614;2023-11-19T12:08:28;16.60;83.90
17495;DHT22;8864;51.970;4.614;2023-11-19T12:10:57;16.60;83.90
17495;DHT22;8864;51.970;4.614;2023-11-19T12:13:52;16.60;83.90
17495;DHT22;8864;51.970;4.614;2023-11-19T12:16:19;16.60;84.30
17495;DHT22;8864;51.970;4.614;2023-11-19T12:18:47;16.70;84.30
17495;DHT22;8864;51.970;4.614;2023-11-19T12:21:29;16.70;84.30
17495;DHT22;8864;51.970;4.614;2023-11-19T12:23:58;16.60;84.30
17495;DHT22;8864;51.970;4.614;2023-11-19T12:26:36;16.70;84.40
17495;DHT22;8864;51.970;4.614;2023-11-19T12:29:04;16.70;84.50
17495;DHT22;8864;51.970;4.614;2023-11-19T12:31:32;16.70;84.60
17495;DHT22;8864;51.970;4.614;2023-11-19T12:34:08;16.70;84.80
17495;DHT22;8864;51.970;4.614;2023-11-19T12:36:39;16.70;84.90
17495;DHT22;8864;51.970;4.614;2023-11-19T12:39:07;16.70;85.10
17495;DHT22;8864;51.970;4.614;2023-11-19T12:41:49;16.70;85.00
17495;DHT22;8864;51.970;4.614;2023-11-19T12:44:16;16.70;85.10
17495;DHT22;8864;51.970;4.614;2023-11-19T12:46:43;16.70;85.10
17495;DHT22;8864;51.970;4.614;2023-11-19T12:49:11;16.70;85.50
17495;DHT22;8864;51.970;4.614;2023-11-19T12:51:40;16.70;85.80
17495;DHT22;8864;51.970;4.614;2023-11-19T12:54:07;16.70;85.80
17495;DHT22;8864;51.970;4.614;2023-11-19T12:56:34;16.70;85.70
17495;DHT22;8864;51.970;4.614;2023-11-19T12:59:10;16.70;85.70
17495;DHT22;8864;51.970;4.614;2023-11-19T13:01:38;16.70;85.60
17495;DHT22;8864;51.970;4.614;2023-11-19T13:04:16;16.70;85.50
17495;DHT22;8864;51.970;4.614;2023-11-19T13:06:46;16.70;85.40
17495;DHT22;8864;51.970;4.614;2023-11-19T13:09:22;16.70;85.30
17495;DHT22;8864;51.970;4.614;2023-11-19T13:11:49;16.70;85.20
17495;DHT22;8864;51.970;4.614;2023-11-19T13:14:17;16.70;85.10
17495;DHT22;8864;51.970;4.614;2023-11-19T13:16:44;16.70;85.00
17495;DHT22;8864;51.970;4.614;2023-11-19T13:19:12;16.70;85.70
17495;DHT22;8864;51.970;4.614;2023-11-19T13:21:39;16.70;84.90
17495;DHT22;8864;51.970;4.614;2023-11-19T13:24:07;16.70;84.90
17495;DHT22;8864;51.970;4.614;2023-11-19T13:26:34;16.70;84.80
17495;DHT22;8864;51.970;4.614;2023-11-19T13:29:01;16.70;84.70
17495;DHT22;8864;51.970;4.614;2023-11-19T13:31:28;16.70;84.70
17495;DHT22;8864;51.970;4.614;2023-11-19T13:33:55;16.70;85.40
17495;DHT22;8864;51.970;4.614;2023-11-19T13:36:24;16.70;84.60
17495;DHT22;8864;51.970;4.614;2023-11-19T13:38:51;16.70;84.60
17495;DHT22;8864;51.970;4.614;2023-11-19T13:41:25;16.70;84.50
17495;DHT22;8864;51.970;4.614;2023-11-19T13:43:52;16.70;84.50
17495;DHT22;8864;51.970;4.614;2023-11-19T13:46:20;16.70;84.50
17495;DHT22;8864;51.970;4.614;2023-11-19T13:48:47;16.70;84.30
17495;DHT22;8864;51.970;4.614;2023-11-19T13:51:15;16.70;84.30
17495;DHT22;8864;51.970;4.614;2023-11-19T13:53:42;16.70;84.30
17495;DHT22;8864;51.970;4.614;2023-11-19T13:56:09;16.70;84.20
17495;DHT22;8864;51.970;4.614;2023-11-19T13:58:38;16.70;84.20
17495;DHT22;8864;51.970;4.614;2023-11-19T14:01:06;16.70;84.10
17495;DHT22;8864;51.970;4.614;2023-11-19T14:03:33;16.70;84.20
17495;DHT22;8864;51.970;4.614;2023-11-19T14:06:00;16.70;84.30
17495;DHT22;8864;51.970;4.614;2023-11-19T14:08:28;16.70;84.30
17495;DHT22;8864;51.970;4.614;2023-11-19T14:10:55;16.80;84.30
17495;DHT22;8864;51.970;4.614;2023-11-19T14:13:22;16.70;84.20
17495;DHT22;8864;51.970;4.614;2023-11-19T14:15:51;16.70;84.20
17495;DHT22;8864;51.970;4.614;2023-11-19T14:18:18;16.70;84.10
17495;DHT22;8864;51.970;4.614;2023-11-19T14:20:45;16.70;84.10
17495;DHT22;8864;51.970;4.614;2023-11-19T14:23:12;16.70;84.00
17495;DHT22;8864;51.970;4.614;2023-11-19T14:25:39;16.70;84.00
17495;DHT22;8864;51.970;4.614;2023-11-19T14:28:06;16.70;84.00
17495;DHT22;8864;51.970;4.614;2023-11-19T14:30:33;16.70;83.90
17495;DHT22;8864;51.970;4.614;2023-11-19T14:33:02;16.80;83.90
17495;DHT22;8864;51.970;4.614;2023-11-19T14:35:30;16.70;83.90
17495;DHT22;8864;51.970;4.614;2023-11-19T14:37:58;16.70;83.90
17495;DHT22;8864;51.970;4.614;2023-11-19T14:40:25;16.70;83.80
17495;DHT22;8864;51.970;4.614;2023-11-19T14:42:52;16.70;83.70
17495;DHT22;8864;51.970;4.614;2023-11-19T14:45:19;16.70;83.70
17495;DHT22;8864;51.970;4.614;2023-11-19T14:47:47;16.70;83.70
17495;DHT22;8864;51.970;4.614;2023-11-19T14:50:15;16.70;83.70
17495;DHT22;8864;51.970;4.614;2023-11-19T14:52:42;16.70;83.60
17495;DHT22;8864;51.970;4.614;2023-11-19T14:55:09;16.70;83.60
17495;DHT22;8864;51.970;4.614;2023-11-19T14:57:37;16.70;83.60
17495;DHT22;8864;51.970;4.614;2023-11-19T15:00:06;16.70;83.60
17495;DHT22;8864;51.970;4.614;2023-11-19T15:02:39;16.70;83.50
17495;DHT22;8864;51.970;4.614;2023-11-19T15:05:07;16.70;83.40
17495;DHT22;8864;51.970;4.614;2023-11-19T15:07:36;16.70;83.40
17495;DHT22;8864;51.970;4.614;2023-11-19T15:10:04;16.70;83.40
17495;DHT22;8864;51.970;4.614;2023-11-19T15:12:35;16.70;83.40
17495;DHT22;8864;51.970;4.614;2023-11-19T15:15:06;16.70;83.40
17495;DHT22;8864;51.970;4.614;2023-11-19T15:17:34;16.70;83.30
17495;DHT22;8864;51.970;4.614;2023-11-19T15:20:02;16.70;83.30
17495;DHT22;8864;51.970;4.614;2023-11-19T15:22:29;16.70;83.40
17495;DHT22;8864;51.970;4.614;2023-11-19T15:24:58;16.70;83.40
17495;DHT22;8864;51.970;4.614;2023-11-19T15:27:25;16.70;83.60
17495;DHT22;8864;51.970;4.614;2023-11-19T15:29:51;16.70;83.60
17495;DHT22;8864;51.970;4.614;2023-11-19T15:32:19;16.70;83.60
17495;DHT22;8864;51.970;4.614;2023-11-19T15:34:46;16.70;83.60
17495;DHT22;8864;51.970;4.614;2023-11-19T15:37:14;16.70;83.40
17495;DHT22;8864;51.970;4.614;2023-11-19T15:39:41;16.70;83.40
17495;DHT22;8864;51.970;4.614;2023-11-19T15:42:09;16.70;83.40
17495;DHT22;8864;51.970;4.614;2023-11-19T15:44:37;16.70;83.40
17495;DHT22;8864;51.970;4.614;2023-11-19T15:47:05;16.70;83.60
17495;DHT22;8864;51.970;4.614;2023-11-19T15:49:32;16.70;83.40
17495;DHT22;8864;51.970;4.614;2023-11-19T15:51:59;16.80;83.40